Terminal Aerodrome Forecast
Issued by NWS Los Angeles, CA

Home | Current Version | Previous Version | Text Only | Print | Product List | Glossary On
Versions: 1 2 3 4 5 6 7 8 9 10 11 12 13 14 15 16 17 18 19 20
000
FTUS46 KLOX 280200 AAA
TAFSMX
TAF AMD
KSMX 280211Z 2802/2824 30008KT P6SM BKN005
     FM280400 VRB03KT 2SM BR OVC004
     FM280600 VRB03KT 1/2SM FG OVC002
     FM281500 VRB03KT 4SM BR OVC005
     FM281700 VRB03KT P6SM SCT250
     FM281900 30013KT P6SM SCT250=

USA.gov is the U.S. government's official web portal to all federal, state and local government web resources and services.